Time;durP1;ratioP1;P1;durP2;ratioP2;P2;SDS_P1;SDS_P2;PMS_P1;PMS_P2;Temp;Humidity;BMP_temperature;BMP_pressure;BME280_temperature;BME280_humidity;BME280_pressure;Samples;Min_cycle;Max_cycle;Signal;HPM_P1;HPM_P2
2023/09/05 00:00:17;;;;;;;8.43;3.78;;;;;;;;;;5014153;28;20105;-74
2023/09/05 00:02:45;;;;;;;8.98;3.83;;;;;;;;;;5011680;28;20477;-73
2023/09/05 00:05:11;;;;;;;6.25;3.63;;;;;;;;;;5015589;28;20018;-73
2023/09/05 00:07:38;;;;;;;8.95;3.90;;;;;;;;;;5014410;28;20069;-73
2023/09/05 00:10:04;;;;;;;6.95;3.60;;;;;;;;;;5015427;28;20034;-74
2023/09/05 00:12:31;;;;;;;9.05;4.28;;;;;;;;;;5014904;28;20062;-74
2023/09/05 00:14:57;;;;;;;7.70;3.88;;;;;;;;;;5014311;28;20029;-73
2023/09/05 00:17:23;;;;;;;6.85;3.80;;;;;;;;;;5014067;28;20065;-73
2023/09/05 00:19:51;;;;;;;7.93;3.58;;;;;;;;;;5014604;28;20057;-73
2023/09/05 00:22:17;;;;;;;6.13;3.80;;;;;;;;;;5014101;28;20021;-75
2023/09/05 00:24:44;;;;;;;6.28;4.05;;;;;;;;;;5014239;28;20101;-75
2023/09/05 00:27:10;;;;;;;6.95;3.78;;;;;;;;;;5014236;28;20604;-74
2023/09/05 00:29:37;;;;;;;6.15;4.00;;;;;;;;;;5014245;28;20030;-73
2023/09/05 00:32:03;;;;;;;7.40;4.13;;;;;;;;;;5013509;28;20033;-73
2023/09/05 00:34:30;;;;;;;5.60;3.70;;;;;;;;;;5012308;28;20030;-73
2023/09/05 00:36:58;;;;;;;5.93;3.70;;;;;;;;;;5013652;28;20037;-73
2023/09/05 00:39:26;;;;;;;5.25;3.33;;;;;;;;;;5013642;28;20038;-73
2023/09/05 00:41:54;;;;;;;7.03;3.08;;;;;;;;;;5013270;28;20381;-74
2023/09/05 00:44:20;;;;;;;6.20;4.00;;;;;;;;;;5013565;28;20025;-73
2023/09/05 00:46:47;;;;;;;10.65;3.78;;;;;;;;;;5013470;28;20030;-74
2023/09/05 00:49:15;;;;;;;8.38;3.90;;;;;;;;;;5013541;28;20022;-74
2023/09/05 00:51:45;;;;;;;8.98;3.28;;;;;;;;;;5013407;28;20030;-72
2023/09/05 00:54:12;;;;;;;5.60;3.17;;;;;;;;;;5013498;28;20388;-74
2023/09/05 00:56:38;;;;;;;5.25;3.25;;;;;;;;;;5013536;28;20560;-72
2023/09/05 00:59:04;;;;;;;10.38;3.58;;;;;;;;;;5013448;28;20272;-72
2023/09/05 01:01:31;;;;;;;7.90;3.63;;;;;;;;;;5013113;28;20052;-74
2023/09/05 01:03:57;;;;;;;7.05;3.75;;;;;;;;;;5013659;28;20022;-74
2023/09/05 01:06:47;;;;;;;7.35;3.88;;;;;;;;;;5013627;28;20439;-74
2023/09/05 01:09:19;;;;;;;7.53;3.38;;;;;;;;;;5006049;28;20397;-73
2023/09/05 01:11:46;;;;;;;6.75;3.55;;;;;;;;;;5013045;28;20022;-74
2023/09/05 01:14:13;;;;;;;6.10;3.35;;;;;;;;;;5014245;28;20464;-74
2023/09/05 01:16:43;;;;;;;5.88;3.20;;;;;;;;;;5008374;28;20453;-74
2023/09/05 01:19:12;;;;;;;5.55;3.35;;;;;;;;;;5007242;28;20026;-73
2023/09/05 01:21:41;;;;;;;6.75;3.33;;;;;;;;;;5001847;28;20058;-73
2023/09/05 01:24:13;;;;;;;6.25;3.50;;;;;;;;;;5008088;28;20021;-73
2023/09/05 01:26:40;;;;;;;13.13;3.78;;;;;;;;;;5027101;28;20484;-73
2023/09/05 01:29:07;;;;;;;6.18;3.65;;;;;;;;;;4992730;28;20030;-73
2023/09/05 01:31:34;;;;;;;9.00;3.58;;;;;;;;;;5001835;28;20041;-73
2023/09/05 01:34:00;;;;;;;6.82;3.70;;;;;;;;;;4993285;28;20437;-72
2023/09/05 01:36:26;;;;;;;7.47;3.08;;;;;;;;;;5024317;28;20040;-73
2023/09/05 01:38:52;;;;;;;4.72;3.25;;;;;;;;;;5017535;28;20040;-73
2023/09/05 01:41:18;;;;;;;5.88;3.72;;;;;;;;;;5008226;28;20420;-72
2023/09/05 01:43:44;;;;;;;8.52;3.25;;;;;;;;;;5020415;28;20100;-74
2023/09/05 01:46:10;;;;;;;6.10;2.92;;;;;;;;;;5024451;28;20059;-74
2023/09/05 01:48:36;;;;;;;7.78;3.17;;;;;;;;;;5028313;28;20022;-75
2023/09/05 01:51:02;;;;;;;5.25;3.05;;;;;;;;;;5019658;28;20044;-74
2023/09/05 01:53:28;;;;;;;13.07;3.70;;;;;;;;;;5008657;28;20065;-74
2023/09/05 01:55:54;;;;;;;6.57;2.92;;;;;;;;;;5008729;28;20033;-74
2023/09/05 01:58:20;;;;;;;8.23;3.28;;;;;;;;;;4999049;28;20109;-72
2023/09/05 02:00:46;;;;;;;6.65;3.33;;;;;;;;;;4996749;28;20109;-73
2023/09/05 02:03:12;;;;;;;9.23;3.03;;;;;;;;;;4996352;28;20049;-74
2023/09/05 02:05:38;;;;;;;4.65;2.95;;;;;;;;;;5000740;28;20034;-73
2023/09/05 02:08:04;;;;;;;4.95;3.13;;;;;;;;;;4995755;28;20501;-74
2023/09/05 02:10:31;;;;;;;5.95;3.20;;;;;;;;;;4998421;28;20034;-73
2023/09/05 02:12:57;;;;;;;5.03;3.15;;;;;;;;;;5005098;28;20031;-74
2023/09/05 02:15:23;;;;;;;5.82;3.28;;;;;;;;;;4995944;28;20029;-72
2023/09/05 02:17:49;;;;;;;10.38;3.65;;;;;;;;;;5010712;28;20145;-74
2023/09/05 02:20:15;;;;;;;6.40;3.50;;;;;;;;;;5011865;28;20072;-73
2023/09/05 02:22:42;;;;;;;4.45;3.53;;;;;;;;;;5011364;28;20432;-73
2023/09/05 02:25:08;;;;;;;5.50;3.53;;;;;;;;;;5017815;28;20053;-74
2023/09/05 02:27:34;;;;;;;5.95;3.20;;;;;;;;;;5016894;28;20101;-73
2023/09/05 02:30:01;;;;;;;8.57;4.10;;;;;;;;;;5017510;28;20036;-76
2023/09/05 02:32:30;;;;;;;9.70;3.40;;;;;;;;;;5018447;28;20026;-76
2023/09/05 02:34:58;;;;;;;5.65;4.03;;;;;;;;;;5019893;28;20045;-78
2023/09/05 02:37:24;;;;;;;7.05;3.45;;;;;;;;;;5010583;28;20033;-77
2023/09/05 02:39:50;;;;;;;8.38;3.70;;;;;;;;;;5013490;28;20455;-79
2023/09/05 02:42:16;;;;;;;9.20;3.90;;;;;;;;;;5016169;28;20093;-78
2023/09/05 02:44:42;;;;;;;8.23;3.72;;;;;;;;;;5016500;28;20049;-79
2023/09/05 02:47:08;;;;;;;10.55;4.38;;;;;;;;;;5015942;28;20481;-78
2023/09/05 02:49:34;;;;;;;7.05;4.05;;;;;;;;;;5015341;28;20033;-74
2023/09/05 02:52:00;;;;;;;6.90;4.10;;;;;;;;;;5015011;28;20489;-73
2023/09/05 02:54:29;;;;;;;7.95;4.00;;;;;;;;;;5015537;28;20120;-73
2023/09/05 02:56:55;;;;;;;8.63;3.70;;;;;;;;;;5015391;28;20030;-74
2023/09/05 02:59:21;;;;;;;5.22;3.70;;;;;;;;;;5015573;28;20049;-74
2023/09/05 03:01:47;;;;;;;5.82;4.05;;;;;;;;;;5015333;28;20104;-74
2023/09/05 03:04:17;;;;;;;8.55;4.10;;;;;;;;;;5015275;28;20428;-73
2023/09/05 03:06:43;;;;;;;5.30;3.33;;;;;;;;;;5015477;28;20113;-72
2023/09/05 03:09:09;;;;;;;6.93;3.60;;;;;;;;;;5015803;28;20022;-72
2023/09/05 03:11:35;;;;;;;9.05;4.18;;;;;;;;;;5015700;28;20076;-73
2023/09/05 03:14:02;;;;;;;8.00;4.07;;;;;;;;;;5015615;28;20056;-73
2023/09/05 03:16:28;;;;;;;6.40;4.15;;;;;;;;;;5015624;28;20034;-71
2023/09/05 03:18:59;;;;;;;5.63;3.40;;;;;;;;;;5015119;28;20025;-72
2023/09/05 03:21:26;;;;;;;4.88;3.75;;;;;;;;;;5015059;28;20022;-74
2023/09/05 03:23:52;;;;;;;6.38;3.67;;;;;;;;;;5014710;28;20048;-73
2023/09/05 03:26:18;;;;;;;6.85;3.70;;;;;;;;;;5015840;28;20045;-73
2023/09/05 03:28:46;;;;;;;8.07;4.03;;;;;;;;;;5015053;28;20093;-72
2023/09/05 03:31:12;;;;;;;7.72;4.28;;;;;;;;;;5013470;28;20085;-74
2023/09/05 03:33:38;;;;;;;8.75;3.85;;;;;;;;;;5012482;28;20029;-76
2023/09/05 03:36:05;;;;;;;8.88;4.13;;;;;;;;;;5014627;28;20323;-75
2023/09/05 03:38:31;;;;;;;5.78;3.83;;;;;;;;;;5014513;28;20042;-75
2023/09/05 03:40:58;;;;;;;7.50;3.67;;;;;;;;;;5012328;28;20026;-73
2023/09/05 03:43:24;;;;;;;6.80;4.00;;;;;;;;;;5013765;28;20029;-73
2023/09/05 03:45:51;;;;;;;6.55;4.03;;;;;;;;;;5014336;28;20032;-75
2023/09/05 03:48:16;;;;;;;11.00;4.32;;;;;;;;;;5013347;28;20014;-75
2023/09/05 03:50:42;;;;;;;8.60;4.10;;;;;;;;;;5013319;28;20117;-74
2023/09/05 03:53:08;;;;;;;10.88;4.00;;;;;;;;;;5014122;28;20033;-72
2023/09/05 03:55:34;;;;;;;10.45;4.82;;;;;;;;;;5015591;28;20089;-76
2023/09/05 03:58:01;;;;;;;7.25;4.55;;;;;;;;;;5014796;28;20026;-73
2023/09/05 04:00:28;;;;;;;8.05;4.50;;;;;;;;;;5014430;28;20104;-73
2023/09/05 04:02:53;;;;;;;9.77;4.55;;;;;;;;;;5013876;28;20018;-72
2023/09/05 04:05:21;;;;;;;10.52;4.95;;;;;;;;;;5014287;28;20480;-72
2023/09/05 04:07:47;;;;;;;7.80;4.50;;;;;;;;;;5014173;28;20041;-73
2023/09/05 04:10:13;;;;;;;9.02;4.72;;;;;;;;;;5014202;28;20101;-73
2023/09/05 04:12:39;;;;;;;9.50;4.90;;;;;;;;;;5014538;28;20515;-72
2023/09/05 04:15:05;;;;;;;9.73;5.32;;;;;;;;;;5014532;28;20144;-72
2023/09/05 04:17:31;;;;;;;7.22;4.88;;;;;;;;;;5016212;28;20026;-73
2023/09/05 04:19:58;;;;;;;8.80;4.68;;;;;;;;;;5015846;28;20056;-75
2023/09/05 04:22:24;;;;;;;8.18;4.35;;;;;;;;;;5016581;28;20076;-73
2023/09/05 04:24:54;;;;;;;8.77;4.75;;;;;;;;;;5019627;28;20018;-73
2023/09/05 04:27:21;;;;;;;9.75;4.63;;;;;;;;;;5015991;28;20098;-72
2023/09/05 04:29:51;;;;;;;7.70;5.97;;;;;;;;;;5015920;28;20017;-74
2023/09/05 04:32:26;;;;;;;6.95;4.45;;;;;;;;;;5014748;28;20026;-73
2023/09/05 04:34:53;;;;;;;5.80;4.32;;;;;;;;;;5015181;28;20030;-73
2023/09/05 04:37:19;;;;;;;8.45;4.60;;;;;;;;;;5013951;28;20022;-73
2023/09/05 04:39:45;;;;;;;10.30;5.00;;;;;;;;;;5015000;28;20449;-74
2023/09/05 04:42:11;;;;;;;11.15;5.45;;;;;;;;;;5014491;28;20030;-74
2023/09/05 04:44:37;;;;;;;11.82;5.45;;;;;;;;;;5015196;28;20043;-75
2023/09/05 04:47:22;;;;;;;10.15;5.03;;;;;;;;;;5016289;28;20026;-73
2023/09/05 04:49:52;;;;;;;10.80;5.47;;;;;;;;;;5015161;28;20085;-74
2023/09/05 04:52:21;;;;;;;8.40;4.70;;;;;;;;;;5012026;28;20033;-73
2023/09/05 04:54:47;;;;;;;14.80;5.40;;;;;;;;;;5011838;28;20026;-74
2023/09/05 04:57:14;;;;;;;14.45;6.10;;;;;;;;;;5013209;28;20037;-76
2023/09/05 04:59:40;;;;;;;11.65;6.22;;;;;;;;;;5013905;28;20124;-73
2023/09/05 05:02:07;;;;;;;12.30;5.70;;;;;;;;;;5013594;28;20022;-75
2023/09/05 05:04:33;;;;;;;12.10;5.60;;;;;;;;;;5013347;28;20053;-75
2023/09/05 05:06:59;;;;;;;11.20;5.65;;;;;;;;;;5013416;28;20516;-73
2023/09/05 05:09:25;;;;;;;10.73;5.60;;;;;;;;;;5013342;28;20172;-74
2023/09/05 05:11:51;;;;;;;8.80;4.88;;;;;;;;;;5012890;28;20516;-75
2023/09/05 05:14:17;;;;;;;9.68;5.88;;;;;;;;;;5012770;28;20152;-72
2023/09/05 05:16:43;;;;;;;13.88;5.85;;;;;;;;;;5012808;28;20030;-73
2023/09/05 05:19:10;;;;;;;10.27;5.82;;;;;;;;;;5011466;28;20037;-73
2023/09/05 05:21:38;;;;;;;11.43;5.88;;;;;;;;;;5012344;28;20030;-75
2023/09/05 05:24:04;;;;;;;9.90;6.18;;;;;;;;;;5012924;28;20026;-74
2023/09/05 05:26:30;;;;;;;12.93;5.55;;;;;;;;;;5012736;28;20026;-74
2023/09/05 05:28:56;;;;;;;14.55;5.85;;;;;;;;;;5012777;28;20105;-75
2023/09/05 05:31:22;;;;;;;13.55;5.53;;;;;;;;;;5010166;28;20033;-75
2023/09/05 05:33:48;;;;;;;11.85;5.60;;;;;;;;;;5011630;28;20440;-73
2023/09/05 05:36:14;;;;;;;15.93;9.55;;;;;;;;;;5012478;28;20476;-74
2023/09/05 05:38:41;;;;;;;13.48;5.85;;;;;;;;;;5012705;28;20033;-73
2023/09/05 05:41:10;;;;;;;10.30;6.15;;;;;;;;;;5011882;28;20026;-73
2023/09/05 05:43:39;;;;;;;10.48;6.22;;;;;;;;;;5012100;28;20025;-73
2023/09/05 05:46:05;;;;;;;12.00;7.60;;;;;;;;;;5013103;28;20076;-73
2023/09/05 05:48:31;;;;;;;14.05;7.18;;;;;;;;;;5010930;28;20408;-73
2023/09/05 05:50:57;;;;;;;13.52;6.43;;;;;;;;;;5012462;28;20061;-73
2023/09/05 05:53:24;;;;;;;11.18;6.32;;;;;;;;;;5011593;28;20025;-72
2023/09/05 05:55:50;;;;;;;13.82;6.25;;;;;;;;;;5012191;28;20033;-74
2023/09/05 05:58:16;;;;;;;11.98;6.95;;;;;;;;;;5011592;28;20129;-75
2023/09/05 06:00:45;;;;;;;12.35;6.45;;;;;;;;;;5011816;28;20030;-73
2023/09/05 06:03:12;;;;;;;12.00;6.47;;;;;;;;;;5012015;28;20077;-74
2023/09/05 06:05:38;;;;;;;11.50;6.35;;;;;;;;;;5011620;28;20018;-72
2023/09/05 06:08:04;;;;;;;12.98;6.43;;;;;;;;;;5011564;28;20041;-73
2023/09/05 06:10:30;;;;;;;14.25;6.30;;;;;;;;;;5011617;28;20029;-72
2023/09/05 06:12:56;;;;;;;13.65;5.80;;;;;;;;;;5012082;28;20093;-73
2023/09/05 06:15:22;;;;;;;13.95;6.20;;;;;;;;;;5013153;28;20030;-80
2023/09/05 06:17:48;;;;;;;11.90;7.07;;;;;;;;;;5012349;28;20080;-73
2023/09/05 06:20:14;;;;;;;14.18;6.70;;;;;;;;;;5013422;28;20448;-73
2023/09/05 06:22:40;;;;;;;12.80;6.03;;;;;;;;;;5015170;28;20022;-74
2023/09/05 06:25:06;;;;;;;15.25;7.90;;;;;;;;;;5012916;28;20461;-75
2023/09/05 06:27:32;;;;;;;16.13;7.10;;;;;;;;;;5015291;28;20097;-78
2023/09/05 06:29:58;;;;;;;19.83;7.07;;;;;;;;;;5013874;28;20049;-74
2023/09/05 06:32:24;;;;;;;17.58;7.55;;;;;;;;;;5010987;28;20163;-75
2023/09/05 06:34:50;;;;;;;15.68;7.32;;;;;;;;;;5011216;28;20064;-75
2023/09/05 06:37:17;;;;;;;20.27;7.07;;;;;;;;;;5011687;28;20026;-75
2023/09/05 06:39:43;;;;;;;15.85;7.90;;;;;;;;;;5011938;28;20095;-76
2023/09/05 06:42:10;;;;;;;16.95;7.35;;;;;;;;;;5011002;28;20081;-76
2023/09/05 06:44:36;;;;;;;24.67;8.88;;;;;;;;;;5011696;28;20148;-75
2023/09/05 06:47:02;;;;;;;25.50;7.95;;;;;;;;;;5011451;28;20101;-73
2023/09/05 06:49:28;;;;;;;22.17;7.20;;;;;;;;;;5011356;28;20487;-79
2023/09/05 06:51:53;;;;;;;21.35;8.70;;;;;;;;;;5014381;28;20026;-77
2023/09/05 06:54:19;;;;;;;20.83;10.10;;;;;;;;;;5013269;28;20397;-76
2023/09/05 06:56:45;;;;;;;38.75;14.55;;;;;;;;;;5012353;28;20132;-73
2023/09/05 06:59:17;;;;;;;25.80;11.85;;;;;;;;;;5014112;28;20045;-72
2023/09/05 07:01:46;;;;;;;13.20;6.13;;;;;;;;;;5017037;28;20029;-75
2023/09/05 07:04:13;;;;;;;17.65;7.63;;;;;;;;;;5013460;28;20080;-75
2023/09/05 07:06:39;;;;;;;15.02;7.55;;;;;;;;;;5012842;28;20026;-73
2023/09/05 07:09:06;;;;;;;10.82;6.05;;;;;;;;;;5014178;28;20470;-74
2023/09/05 07:11:32;;;;;;;16.50;5.80;;;;;;;;;;5012185;28;20030;-73
2023/09/05 07:13:58;;;;;;;10.98;5.43;;;;;;;;;;5013677;28;20104;-73
2023/09/05 07:16:24;;;;;;;13.00;6.18;;;;;;;;;;5013965;28;20120;-71
2023/09/05 07:18:50;;;;;;;10.80;5.70;;;;;;;;;;5011228;28;20125;-72
2023/09/05 07:21:16;;;;;;;18.63;10.57;;;;;;;;;;5011445;28;20026;-72
2023/09/05 07:23:42;;;;;;;10.63;6.35;;;;;;;;;;5012083;28;20072;-73
2023/09/05 07:26:08;;;;;;;11.57;5.72;;;;;;;;;;5016371;28;20021;-74
2023/09/05 07:28:34;;;;;;;14.75;5.18;;;;;;;;;;5015414;28;20669;-71
2023/09/05 07:31:01;;;;;;;15.77;5.43;;;;;;;;;;5017192;28;20168;-74
2023/09/05 07:33:27;;;;;;;14.43;5.68;;;;;;;;;;5016404;28;20048;-73
2023/09/05 07:35:53;;;;;;;19.67;5.53;;;;;;;;;;5015981;28;20520;-74
2023/09/05 07:38:21;;;;;;;12.13;4.93;;;;;;;;;;5016602;28;20068;-73
2023/09/05 07:40:48;;;;;;;15.77;4.95;;;;;;;;;;5016443;28;20021;-74
2023/09/05 07:43:14;;;;;;;21.85;5.47;;;;;;;;;;5015128;28;20101;-74
2023/09/05 07:45:40;;;;;;;13.65;4.70;;;;;;;;;;5015009;28;20026;-73
2023/09/05 07:48:08;;;;;;;15.20;5.00;;;;;;;;;;5015158;28;20028;-72
2023/09/05 07:50:35;;;;;;;15.80;5.15;;;;;;;;;;5015540;28;20079;-72
2023/09/05 07:53:01;;;;;;;14.10;4.82;;;;;;;;;;5015616;28;20042;-72
2023/09/05 07:55:27;;;;;;;12.02;4.80;;;;;;;;;;5015037;28;20057;-73
2023/09/05 07:57:55;;;;;;;12.15;5.13;;;;;;;;;;5014574;28;20476;-72
2023/09/05 08:00:21;;;;;;;20.92;6.00;;;;;;;;;;5014472;28;20033;-73
2023/09/05 08:02:47;;;;;;;14.50;5.03;;;;;;;;;;5013893;28;20508;-72
2023/09/05 08:05:13;;;;;;;16.42;6.80;;;;;;;;;;5014310;28;20029;-75
2023/09/05 08:07:40;;;;;;;24.67;5.53;;;;;;;;;;5014183;28;20041;-74
2023/09/05 08:10:07;;;;;;;12.32;4.57;;;;;;;;;;5014242;28;20022;-74
2023/09/05 08:12:33;;;;;;;15.35;6.88;;;;;;;;;;5012587;28;20029;-74
2023/09/05 08:14:59;;;;;;;20.17;8.13;;;;;;;;;;5014054;28;20025;-74
2023/09/05 08:17:25;;;;;;;16.00;6.13;;;;;;;;;;5013876;28;20049;-73
2023/09/05 08:19:51;;;;;;;10.27;4.63;;;;;;;;;;5012744;28;20077;-74
2023/09/05 08:22:17;;;;;;;12.00;5.70;;;;;;;;;;5013866;28;20485;-76
2023/09/05 08:24:44;;;;;;;17.05;6.70;;;;;;;;;;5014457;28;20096;-73
2023/09/05 08:27:16;;;;;;;13.52;5.80;;;;;;;;;;5014842;28;20068;-74
2023/09/05 08:29:42;;;;;;;14.40;6.63;;;;;;;;;;5014640;28;20413;-73
2023/09/05 08:32:08;;;;;;;14.07;5.07;;;;;;;;;;5013793;28;20068;-74
2023/09/05 08:34:34;;;;;;;15.48;5.32;;;;;;;;;;5014046;28;20034;-75
2023/09/05 08:37:00;;;;;;;22.60;8.52;;;;;;;;;;5013701;28;20038;-75
2023/09/05 08:39:26;;;;;;;17.40;5.25;;;;;;;;;;5014191;28;20116;-76
2023/09/05 08:41:52;;;;;;;19.00;5.60;;;;;;;;;;5013659;28;20163;-74
2023/09/05 08:44:18;;;;;;;16.83;4.13;;;;;;;;;;5013665;28;20030;-73
2023/09/05 08:46:46;;;;;;;14.55;7.72;;;;;;;;;;5013605;28;20028;-74
2023/09/05 08:49:12;;;;;;;18.63;7.15;;;;;;;;;;5013401;28;20097;-73
2023/09/05 08:51:40;;;;;;;21.80;11.60;;;;;;;;;;5013394;28;20075;-74
2023/09/05 08:54:07;;;;;;;22.70;7.72;;;;;;;;;;5013289;28;20057;-74
2023/09/05 08:56:33;;;;;;;14.60;7.18;;;;;;;;;;5013799;28;20131;-73
2023/09/05 08:59:00;;;;;;;11.57;4.03;;;;;;;;;;5013501;28;20493;-74
2023/09/05 09:01:29;;;;;;;9.93;3.60;;;;;;;;;;5013445;28;20045;-73
2023/09/05 09:03:55;;;;;;;15.10;3.50;;;;;;;;;;5012954;28;20018;-74
2023/09/05 09:06:25;;;;;;;12.27;3.58;;;;;;;;;;5013253;28;20473;-75
2023/09/05 09:08:52;;;;;;;8.93;3.50;;;;;;;;;;5012865;28;20049;-74
2023/09/05 09:11:19;;;;;;;8.95;3.20;;;;;;;;;;5013105;28;20452;-73
2023/09/05 09:13:47;;;;;;;11.48;3.50;;;;;;;;;;5012427;28;20041;-73
2023/09/05 09:16:17;;;;;;;12.93;3.70;;;;;;;;;;5012885;28;20307;-74
2023/09/05 09:18:43;;;;;;;7.63;3.50;;;;;;;;;;5013111;28;20026;-74
2023/09/05 09:21:09;;;;;;;7.60;4.05;;;;;;;;;;5013082;28;20108;-74
2023/09/05 09:23:35;;;;;;;7.10;3.15;;;;;;;;;;5012496;28;20499;-75
2023/09/05 09:26:02;;;;;;;10.13;3.20;;;;;;;;;;5012774;28;20096;-73
2023/09/05 09:28:29;;;;;;;11.75;2.88;;;;;;;;;;5012830;28;20021;-73
2023/09/05 09:31:16;;;;;;;10.48;3.30;;;;;;;;;;5012709;28;20104;-75
2023/09/05 09:33:42;;;;;;;9.05;2.90;;;;;;;;;;5012294;28;20038;-74
2023/09/05 09:36:11;;;;;;;11.27;3.88;;;;;;;;;;5012220;28;20029;-74
2023/09/05 09:38:38;;;;;;;16.17;3.35;;;;;;;;;;5013052;28;20400;-74
2023/09/05 09:41:06;;;;;;;8.15;3.00;;;;;;;;;;5012439;28;20025;-77
2023/09/05 09:43:32;;;;;;;6.03;3.15;;;;;;;;;;5012229;28;20621;-74
2023/09/05 09:45:59;;;;;;;8.50;2.83;;;;;;;;;;5012689;28;20026;-80
2023/09/05 09:48:29;;;;;;;9.05;3.40;;;;;;;;;;5010374;28;20429;-73
2023/09/05 09:50:56;;;;;;;10.90;3.00;;;;;;;;;;5012348;28;20044;-74
2023/09/05 09:53:34;;;;;;;7.30;3.58;;;;;;;;;;5012133;28;20026;-74
2023/09/05 09:56:02;;;;;;;7.05;2.70;;;;;;;;;;5012483;28;20397;-74
2023/09/05 09:58:30;;;;;;;10.38;3.25;;;;;;;;;;5012208;28;20397;-74
2023/09/05 10:00:57;;;;;;;11.82;2.95;;;;;;;;;;5013321;28;20029;-75
2023/09/05 10:03:24;;;;;;;6.63;3.95;;;;;;;;;;5012400;28;20048;-74
2023/09/05 10:05:50;;;;;;;9.77;3.00;;;;;;;;;;5012418;28;20026;-73
2023/09/05 10:08:17;;;;;;;10.00;2.50;;;;;;;;;;5012169;28;20026;-73
2023/09/05 10:10:43;;;;;;;7.95;3.50;;;;;;;;;;5012422;28;20026;-76
2023/09/05 10:13:10;;;;;;;11.05;3.25;;;;;;;;;;5012370;28;20080;-73
2023/09/05 10:15:36;;;;;;;7.40;2.97;;;;;;;;;;5012140;28;20025;-73
2023/09/05 10:18:02;;;;;;;9.75;3.10;;;;;;;;;;5012530;28;20026;-74
2023/09/05 10:20:30;;;;;;;9.90;3.10;;;;;;;;;;5012375;28;20073;-73
2023/09/05 10:22:57;;;;;;;16.30;4.80;;;;;;;;;;5012157;28;20018;-74
2023/09/05 10:25:24;;;;;;;13.75;4.75;;;;;;;;;;5012089;28;20025;-74
2023/09/05 10:27:50;;;;;;;18.67;7.30;;;;;;;;;;5012069;28;20026;-72
2023/09/05 10:30:18;;;;;;;8.48;3.92;;;;;;;;;;5011779;28;20022;-73
2023/09/05 10:32:46;;;;;;;9.07;3.40;;;;;;;;;;5011652;28;20025;-75
2023/09/05 10:35:19;;;;;;;4.75;2.72;;;;;;;;;;5011640;28;20037;-74
2023/09/05 10:37:52;;;;;;;13.68;6.05;;;;;;;;;;5012069;28;20037;-73
2023/09/05 10:40:18;;;;;;;12.75;4.65;;;;;;;;;;5012800;28;20384;-76
2023/09/05 10:42:55;;;;;;;20.23;8.55;;;;;;;;;;5012643;28;20044;-75
2023/09/05 10:45:24;;;;;;;10.65;4.32;;;;;;;;;;5012211;28;20103;-74
2023/09/05 10:47:50;;;;;;;18.10;6.25;;;;;;;;;;5011802;28;20068;-73
2023/09/05 10:50:20;;;;;;;13.75;5.75;;;;;;;;;;5012057;28;20294;-73
2023/09/05 10:53:06;;;;;;;14.43;4.00;;;;;;;;;;5011492;28;20080;-73
2023/09/05 10:55:39;;;;;;;7.72;2.72;;;;;;;;;;5001380;28;20489;-73
2023/09/05 10:58:24;;;;;;;18.90;5.85;;;;;;;;;;5011996;28;20531;-74
2023/09/05 11:00:50;;;;;;;;;;;;;;;;;;5014417;28;20057;-74
2023/09/05 11:03:17;;;;;;;7.32;3.13;;;;;;;;;;5015623;28;20419;-74
2023/09/05 11:05:45;;;;;;;15.07;4.43;;;;;;;;;;5015504;28;20022;-74
2023/09/05 11:08:21;;;;;;;6.95;3.60;;;;;;;;;;5015352;28;20020;-74
2023/09/05 11:10:47;;;;;;;13.00;4.50;;;;;;;;;;5015842;28;20488;-75
2023/09/05 11:13:17;;;;;;;11.85;3.53;;;;;;;;;;5015338;28;20049;-75
2023/09/05 11:15:43;;;;;;;7.63;2.08;;;;;;;;;;5015567;28;20044;-74
2023/09/05 11:18:11;;;;;;;6.72;2.50;;;;;;;;;;5015025;28;20037;-74
2023/09/05 11:20:43;;;;;;;7.70;2.22;;;;;;;;;;5015131;28;20456;-75
2023/09/05 11:23:21;;;;;;;5.43;2.08;;;;;;;;;;5014610;28;20065;-74
2023/09/05 11:25:50;;;;;;;8.52;2.40;;;;;;;;;;5015082;28;20018;-73
2023/09/05 11:28:17;;;;;;;8.18;2.10;;;;;;;;;;5015309;28;20093;-73
2023/09/05 11:30:44;;;;;;;8.40;2.40;;;;;;;;;;5015313;28;20032;-75
2023/09/05 11:33:14;;;;;;;7.25;2.45;;;;;;;;;;5021691;28;20033;-73
2023/09/05 11:35:44;;;;;;;12.13;3.80;;;;;;;;;;5021450;28;20037;-75
2023/09/05 11:38:11;;;;;;;9.23;2.58;;;;;;;;;;5019460;28;20482;-74
2023/09/05 11:40:38;;;;;;;9.00;2.88;;;;;;;;;;5017285;28;20033;-74
2023/09/05 11:43:09;;;;;;;9.80;2.38;;;;;;;;;;5014270;28;20057;-74
2023/09/05 11:45:37;;;;;;;10.93;2.75;;;;;;;;;;5014575;28;20045;-74
2023/09/05 11:48:04;;;;;;;6.38;2.65;;;;;;;;;;5015820;28;20029;-75
2023/09/05 11:50:34;;;;;;;9.10;2.53;;;;;;;;;;5016203;28;20034;-75
2023/09/05 11:53:02;;;;;;;6.47;2.10;;;;;;;;;;5017777;28;20084;-74
2023/09/05 11:55:29;;;;;;;8.40;3.95;;;;;;;;;;5013420;28;20022;-73
2023/09/05 11:57:56;;;;;;;12.77;2.40;;;;;;;;;;5015135;28;20029;-74
2023/09/05 12:00:26;;;;;;;9.35;2.35;;;;;;;;;;5014326;28;20080;-75
2023/09/05 12:02:52;;;;;;;16.02;2.80;;;;;;;;;;5013555;28;20018;-75
2023/09/05 12:05:21;;;;;;;7.53;2.47;;;;;;;;;;5014396;28;20377;-74
2023/09/05 12:07:51;;;;;;;7.65;2.20;;;;;;;;;;5014089;28;20102;-74
2023/09/05 12:10:17;;;;;;;6.75;2.10;;;;;;;;;;5012970;28;20080;-75
2023/09/05 12:12:58;;;;;;;8.88;2.20;;;;;;;;;;5011896;28;20028;-75
2023/09/05 12:15:30;;;;;;;8.60;2.20;;;;;;;;;;5013195;28;20018;-74
2023/09/05 12:17:57;;;;;;;11.20;2.95;;;;;;;;;;5013250;28;20052;-74
2023/09/05 12:20:23;;;;;;;11.38;2.38;;;;;;;;;;5013173;28;20022;-75
2023/09/05 12:22:49;;;;;;;9.15;2.45;;;;;;;;;;5012637;28;20037;-73
2023/09/05 12:25:16;;;;;;;8.30;2.50;;;;;;;;;;5013269;28;20029;-75
2023/09/05 12:27:43;;;;;;;7.40;1.88;;;;;;;;;;5012828;28;20022;-74
2023/09/05 12:30:25;;;;;;;5.75;2.45;;;;;;;;;;5013138;28;20056;-74
2023/09/05 12:32:58;;;;;;;7.22;2.13;;;;;;;;;;5012570;28;20109;-75
2023/09/05 12:35:26;;;;;;;5.60;2.00;;;;;;;;;;5012907;28;20084;-74
2023/09/05 12:37:52;;;;;;;8.25;2.75;;;;;;;;;;5013289;28;20109;-74
2023/09/05 12:40:19;;;;;;;6.20;3.40;;;;;;;;;;5012520;28;20032;-74
2023/09/05 12:42:45;;;;;;;9.60;2.53;;;;;;;;;;5013206;28;20497;-73
2023/09/05 12:45:12;;;;;;;5.43;2.13;;;;;;;;;;5013254;28;20030;-74
2023/09/05 12:47:38;;;;;;;8.55;2.05;;;;;;;;;;5009950;28;20076;-75
2023/09/05 12:50:05;;;;;;;7.07;2.30;;;;;;;;;;5012394;28;20021;-75
2023/09/05 12:52:32;;;;;;;6.85;2.83;;;;;;;;;;5012150;28;20056;-75
2023/09/05 12:54:58;;;;;;;8.05;2.30;;;;;;;;;;5012174;28;20432;-76
2023/09/05 12:57:25;;;;;;;3.45;1.90;;;;;;;;;;5013735;28;20022;-75
2023/09/05 12:59:52;;;;;;;5.40;2.40;;;;;;;;;;5013165;28;20029;-74
2023/09/05 13:02:18;;;;;;;6.13;2.03;;;;;;;;;;5011824;28;20057;-75
2023/09/05 13:04:44;;;;;;;7.28;2.40;;;;;;;;;;5010071;28;20026;-75
2023/09/05 13:07:10;;;;;;;6.30;2.28;;;;;;;;;;5010227;28;20102;-74
2023/09/05 13:09:36;;;;;;;9.52;2.20;;;;;;;;;;5011527;28;20033;-75
2023/09/05 13:12:02;;;;;;;8.85;2.50;;;;;;;;;;5011053;28;20078;-75
2023/09/05 13:14:29;;;;;;;6.72;2.45;;;;;;;;;;5009054;28;20021;-76
2023/09/05 13:16:55;;;;;;;7.50;2.20;;;;;;;;;;5011911;28;20069;-75
2023/09/05 13:19:21;;;;;;;6.35;2.40;;;;;;;;;;5011848;28;20029;-75
2023/09/05 13:21:47;;;;;;;8.93;2.40;;;;;;;;;;5010719;28;20022;-73
2023/09/05 13:24:13;;;;;;;11.00;2.38;;;;;;;;;;5013337;28;20025;-76
2023/09/05 13:26:39;;;;;;;9.23;2.50;;;;;;;;;;5013689;28;20103;-79
2023/09/05 13:29:05;;;;;;;7.18;2.20;;;;;;;;;;5011633;28;20489;-73
2023/09/05 13:31:31;;;;;;;9.15;2.70;;;;;;;;;;5010612;28;20488;-76
2023/09/05 13:33:57;;;;;;;7.35;2.40;;;;;;;;;;5011183;28;20084;-75
2023/09/05 13:36:23;;;;;;;9.85;2.33;;;;;;;;;;5011544;28;20674;-76
2023/09/05 13:38:49;;;;;;;17.70;2.67;;;;;;;;;;5010990;28;20066;-75
2023/09/05 13:41:16;;;;;;;3.97;1.98;;;;;;;;;;5009782;28;20107;-79
2023/09/05 13:43:42;;;;;;;5.20;2.08;;;;;;;;;;5014015;28;20045;-76
2023/09/05 13:46:08;;;;;;;8.35;2.30;;;;;;;;;;5012467;28;20030;-74
2023/09/05 13:48:34;;;;;;;5.60;2.22;;;;;;;;;;5010578;28;20040;-76
2023/09/05 13:51:00;;;;;;;10.02;3.30;;;;;;;;;;5012064;28;20129;-75
2023/09/05 13:53:26;;;;;;;9.38;2.47;;;;;;;;;;5011942;28;20022;-75
2023/09/05 13:55:52;;;;;;;4.20;1.80;;;;;;;;;;5012019;28;20029;-74
2023/09/05 13:58:19;;;;;;;11.18;2.40;;;;;;;;;;5011190;28;20485;-75
2023/09/05 14:00:45;;;;;;;4.25;2.17;;;;;;;;;;5014057;28;20611;-75
2023/09/05 14:03:11;;;;;;;7.82;1.80;;;;;;;;;;5018874;28;20054;-77
2023/09/05 14:05:37;;;;;;;4.78;1.90;;;;;;;;;;5013275;28;20417;-74
2023/09/05 14:08:03;;;;;;;10.05;2.10;;;;;;;;;;5011724;28;20025;-73
2023/09/05 14:10:29;;;;;;;3.75;1.88;;;;;;;;;;5011829;28;20438;-75
2023/09/05 14:12:55;;;;;;;3.85;2.00;;;;;;;;;;5009803;28;20048;-73
2023/09/05 14:15:21;;;;;;;8.20;2.00;;;;;;;;;;5012578;28;20380;-75
2023/09/05 14:17:47;;;;;;;6.07;2.10;;;;;;;;;;5012297;28;20105;-75
2023/09/05 14:20:13;;;;;;;4.65;1.92;;;;;;;;;;5010914;28;20432;-75
2023/09/05 14:22:39;;;;;;;5.82;1.98;;;;;;;;;;5011540;28;20030;-74
2023/09/05 14:25:06;;;;;;;10.70;2.00;;;;;;;;;;5012000;28;20489;-75
2023/09/05 14:27:32;;;;;;;3.03;2.03;;;;;;;;;;5011164;28;20037;-74
2023/09/05 14:29:58;;;;;;;8.95;2.00;;;;;;;;;;5011822;28;20030;-75
2023/09/05 14:32:24;;;;;;;6.15;2.20;;;;;;;;;;5012136;28;20022;-76
2023/09/05 14:34:55;;;;;;;8.23;2.10;;;;;;;;;;5008926;28;20071;-76
2023/09/05 14:37:21;;;;;;;7.70;2.13;;;;;;;;;;5011776;28;20018;-75